sensor_id;sensor_type;location;lat;lon;timestamp;pressure;altitude;pressure_sealevel;temperature;humidity
8229;BME280;4155;50.118;8.714;2022-07-05T00:01:23;100478.91;;;19.46;49.77
8229;BME280;4155;50.118;8.714;2022-07-05T00:03:51;100476.03;;;19.35;50.42
8229;BME280;4155;50.118;8.714;2022-07-05T00:06:19;100476.66;;;19.26;49.96
8229;BME280;4155;50.118;8.714;2022-07-05T00:08:46;100481.13;;;19.32;50.19
8229;BME280;4155;50.118;8.714;2022-07-05T00:11:15;100479.19;;;19.16;51.17
8229;BME280;4155;50.118;8.714;2022-07-05T00:13:43;100478.16;;;19.05;51.09
8229;BME280;4155;50.118;8.714;2022-07-05T00:16:11;100474.00;;;19.02;52.09
8229;BME280;4155;50.118;8.714;2022-07-05T00:18:39;100482.56;;;18.94;52.12
8229;BME280;4155;50.118;8.714;2022-07-05T00:21:07;100481.75;;;18.94;51.66
8229;BME280;4155;50.118;8.714;2022-07-05T00:23:34;100477.53;;;19.15;50.80
8229;BME280;4155;50.118;8.714;2022-07-05T00:26:02;100483.34;;;19.35;50.18
8229;BME280;4155;50.118;8.714;2022-07-05T00:28:31;100482.56;;;19.51;49.85
8229;BME280;4155;50.118;8.714;2022-07-05T00:30:58;100485.41;;;19.56;49.34
8229;BME280;4155;50.118;8.714;2022-07-05T00:33:26;100481.72;;;19.62;48.93
8229;BME280;4155;50.118;8.714;2022-07-05T00:35:54;100476.53;;;19.61;48.89
8229;BME280;4155;50.118;8.714;2022-07-05T00:38:21;100476.84;;;19.64;48.65
8229;BME280;4155;50.118;8.714;2022-07-05T00:40:50;100479.31;;;19.66;49.10
8229;BME280;4155;50.118;8.714;2022-07-05T00:43:17;100475.38;;;19.57;49.37
8229;BME280;4155;50.118;8.714;2022-07-05T00:45:46;100470.81;;;19.34;50.04
8229;BME280;4155;50.118;8.714;2022-07-05T00:48:14;100472.94;;;19.15;50.83
8229;BME280;4155;50.118;8.714;2022-07-05T00:50:42;100473.53;;;19.05;51.15
8229;BME280;4155;50.118;8.714;2022-07-05T00:53:11;100480.69;;;18.83;52.58
8229;BME280;4155;50.118;8.714;2022-07-05T00:55:39;100477.75;;;18.73;52.94
8229;BME280;4155;50.118;8.714;2022-07-05T00:58:07;100483.19;;;18.73;52.50
8229;BME280;4155;50.118;8.714;2022-07-05T01:00:36;100486.13;;;18.71;52.31
8229;BME280;4155;50.118;8.714;2022-07-05T01:03:09;100492.28;;;18.67;52.71
8229;BME280;4155;50.118;8.714;2022-07-05T01:05:39;100484.59;;;18.64;52.81
8229;BME280;4155;50.118;8.714;2022-07-05T01:08:08;100489.31;;;18.68;52.42
8229;BME280;4155;50.118;8.714;2022-07-05T01:10:36;100493.69;;;18.69;52.85
8229;BME280;4155;50.118;8.714;2022-07-05T01:13:05;100503.59;;;18.64;52.70
8229;BME280;4155;50.118;8.714;2022-07-05T01:15:32;100488.91;;;19.00;51.11
8229;BME280;4155;50.118;8.714;2022-07-05T01:18:01;100495.28;;;19.05;50.80
8229;BME280;4155;50.118;8.714;2022-07-05T01:20:30;100490.41;;;19.19;50.22
8229;BME280;4155;50.118;8.714;2022-07-05T01:23:00;100483.00;;;19.31;50.07
8229;BME280;4155;50.118;8.714;2022-07-05T01:25:29;100483.00;;;19.31;50.16
8229;BME280;4155;50.118;8.714;2022-07-05T01:27:58;100479.91;;;19.40;49.95
8229;BME280;4155;50.118;8.714;2022-07-05T01:30:27;100490.47;;;19.24;50.21
8229;BME280;4155;50.118;8.714;2022-07-05T01:32:54;100484.81;;;19.26;50.24
8229;BME280;4155;50.118;8.714;2022-07-05T01:35:22;100479.72;;;19.29;50.26
8229;BME280;4155;50.118;8.714;2022-07-05T01:37:51;100480.53;;;19.30;50.09
8229;BME280;4155;50.118;8.714;2022-07-05T01:40:20;100477.28;;;19.16;50.25
8229;BME280;4155;50.118;8.714;2022-07-05T01:42:47;100476.66;;;19.26;49.89
8229;BME280;4155;50.118;8.714;2022-07-05T01:45:15;100471.94;;;19.21;50.31
8229;BME280;4155;50.118;8.714;2022-07-05T01:48:07;100473.34;;;19.24;50.03
8229;BME280;4155;50.118;8.714;2022-07-05T01:50:38;100459.91;;;19.17;50.25
8229;BME280;4155;50.118;8.714;2022-07-05T01:53:10;100461.22;;;19.15;50.85
8229;BME280;4155;50.118;8.714;2022-07-05T01:55:40;100472.97;;;18.92;52.03
8229;BME280;4155;50.118;8.714;2022-07-05T01:58:08;100471.66;;;19.06;50.71
8229;BME280;4155;50.118;8.714;2022-07-05T02:00:42;100472.50;;;18.95;50.99
8229;BME280;4155;50.118;8.714;2022-07-05T02:03:11;100464.03;;;18.79;51.77
8229;BME280;4155;50.118;8.714;2022-07-05T02:05:41;100473.50;;;18.65;52.73
8229;BME280;4155;50.118;8.714;2022-07-05T02:08:09;100476.22;;;18.65;52.29
8229;BME280;4155;50.118;8.714;2022-07-05T02:10:37;100474.41;;;18.59;52.36
8229;BME280;4155;50.118;8.714;2022-07-05T02:13:07;100473.59;;;18.59;53.16
8229;BME280;4155;50.118;8.714;2022-07-05T02:15:36;100478.22;;;18.46;53.12
8229;BME280;4155;50.118;8.714;2022-07-05T02:18:05;100481.75;;;18.35;54.01
8229;BME280;4155;50.118;8.714;2022-07-05T02:20:34;100484.59;;;18.29;53.71
8229;BME280;4155;50.118;8.714;2022-07-05T02:23:04;100484.72;;;18.22;54.47
8229;BME280;4155;50.118;8.714;2022-07-05T02:25:32;100486.59;;;18.10;55.00
8229;BME280;4155;50.118;8.714;2022-07-05T02:28:00;100481.53;;;18.13;54.04
8229;BME280;4155;50.118;8.714;2022-07-05T02:30:29;100487.69;;;18.20;53.98
8229;BME280;4155;50.118;8.714;2022-07-05T02:32:57;100484.72;;;18.22;54.09
8229;BME280;4155;50.118;8.714;2022-07-05T02:35:25;100485.19;;;18.31;53.67
8229;BME280;4155;50.118;8.714;2022-07-05T02:37:52;100489.66;;;18.13;53.92
8229;BME280;4155;50.118;8.714;2022-07-05T02:40:20;100497.22;;;18.11;54.10
8229;BME280;4155;50.118;8.714;2022-07-05T02:42:48;100494.97;;;18.08;54.73
8229;BME280;4155;50.118;8.714;2022-07-05T02:45:15;100500.63;;;18.07;54.51
8229;BME280;4155;50.118;8.714;2022-07-05T02:47:44;100503.81;;;18.04;54.97
8229;BME280;4155;50.118;8.714;2022-07-05T02:50:12;100502.63;;;18.00;55.53
8229;BME280;4155;50.118;8.714;2022-07-05T02:52:40;100506.16;;;17.88;55.68
8229;BME280;4155;50.118;8.714;2022-07-05T02:55:08;100507.06;;;17.82;55.55
8229;BME280;4155;50.118;8.714;2022-07-05T02:57:37;100503.19;;;17.78;55.67
8229;BME280;4155;50.118;8.714;2022-07-05T03:00:06;100499.13;;;17.69;56.02
8229;BME280;4155;50.118;8.714;2022-07-05T03:02:34;100509.53;;;17.72;56.28
8229;BME280;4155;50.118;8.714;2022-07-05T03:05:03;100504.84;;;17.61;56.87
8229;BME280;4155;50.118;8.714;2022-07-05T03:07:31;100508.13;;;17.51;56.82
8229;BME280;4155;50.118;8.714;2022-07-05T03:09:58;100506.94;;;17.47;57.05
8229;BME280;4155;50.118;8.714;2022-07-05T03:12:26;100512.66;;;17.39;57.19
8229;BME280;4155;50.118;8.714;2022-07-05T03:14:54;100515.47;;;17.32;57.39
8229;BME280;4155;50.118;8.714;2022-07-05T03:17:22;100515.84;;;17.36;57.63
8229;BME280;4155;50.118;8.714;2022-07-05T03:19:49;100515.69;;;17.31;57.94
8229;BME280;4155;50.118;8.714;2022-07-05T03:22:18;100520.00;;;17.20;58.28
8229;BME280;4155;50.118;8.714;2022-07-05T03:24:46;100527.53;;;17.37;57.66
8229;BME280;4155;50.118;8.714;2022-07-05T03:27:14;100527.28;;;17.38;57.74
8229;BME280;4155;50.118;8.714;2022-07-05T03:29:44;100533.91;;;17.42;57.25
8229;BME280;4155;50.118;8.714;2022-07-05T03:32:12;100533.06;;;17.42;57.24
8229;BME280;4155;50.118;8.714;2022-07-05T03:34:39;100536.84;;;17.41;57.52
8229;BME280;4155;50.118;8.714;2022-07-05T03:37:08;100536.47;;;17.37;57.46
8229;BME280;4155;50.118;8.714;2022-07-05T03:39:37;100539.78;;;17.39;57.72
8229;BME280;4155;50.118;8.714;2022-07-05T03:42:05;100541.09;;;17.67;56.65
8229;BME280;4155;50.118;8.714;2022-07-05T03:44:33;100542.53;;;17.69;56.75
8229;BME280;4155;50.118;8.714;2022-07-05T03:47:01;100540.47;;;17.64;56.74
8229;BME280;4155;50.118;8.714;2022-07-05T03:49:29;100539.72;;;17.46;57.31
8229;BME280;4155;50.118;8.714;2022-07-05T03:51:57;100533.94;;;17.54;57.37
8229;BME280;4155;50.118;8.714;2022-07-05T03:54:25;100536.06;;;17.52;57.35
8229;BME280;4155;50.118;8.714;2022-07-05T03:56:54;100546.31;;;17.50;57.98
8229;BME280;4155;50.118;8.714;2022-07-05T03:59:21;100544.31;;;17.27;58.67
8229;BME280;4155;50.118;8.714;2022-07-05T04:01:49;100549.28;;;17.30;58.68
8229;BME280;4155;50.118;8.714;2022-07-05T04:04:17;100541.53;;;17.33;58.51
8229;BME280;4155;50.118;8.714;2022-07-05T04:06:45;100541.53;;;17.63;57.53
8229;BME280;4155;50.118;8.714;2022-07-05T04:09:12;100550.88;;;17.68;57.14
8229;BME280;4155;50.118;8.714;2022-07-05T04:11:40;100545.53;;;17.79;56.92
8229;BME280;4155;50.118;8.714;2022-07-05T04:14:09;100548.38;;;17.96;56.41
8229;BME280;4155;50.118;8.714;2022-07-05T04:16:37;100550.34;;;18.19;56.42
8229;BME280;4155;50.118;8.714;2022-07-05T04:19:05;100549.69;;;18.70;55.07
8229;BME280;4155;50.118;8.714;2022-07-05T04:21:33;100535.94;;;19.98;51.64
8229;BME280;4155;50.118;8.714;2022-07-05T04:24:01;100531.50;;;20.75;49.55
8229;BME280;4155;50.118;8.714;2022-07-05T04:26:29;100531.44;;;21.31;47.08
8229;BME280;4155;50.118;8.714;2022-07-05T04:28:56;100516.97;;;22.48;45.57
8229;BME280;4155;50.118;8.714;2022-07-05T04:31:25;100512.94;;;24.27;41.98
8229;BME280;4155;50.118;8.714;2022-07-05T04:33:53;100504.25;;;26.04;39.01
8229;BME280;4155;50.118;8.714;2022-07-05T04:36:21;100500.19;;;27.31;36.15
8229;BME280;4155;50.118;8.714;2022-07-05T04:38:49;100499.94;;;27.89;35.02
8229;BME280;4155;50.118;8.714;2022-07-05T04:41:16;100502.75;;;28.35;34.20
8229;BME280;4155;50.118;8.714;2022-07-05T04:43:44;100498.72;;;29.29;33.02
8229;BME280;4155;50.118;8.714;2022-07-05T04:46:11;100502.59;;;30.00;32.40
8229;BME280;4155;50.118;8.714;2022-07-05T04:48:40;100493.44;;;29.91;31.58
8229;BME280;4155;50.118;8.714;2022-07-05T04:51:08;100499.28;;;29.89;31.23
8229;BME280;4155;50.118;8.714;2022-07-05T04:53:36;100497.94;;;29.87;32.00
8229;BME280;4155;50.118;8.714;2022-07-05T04:56:04;100506.31;;;30.71;30.52
8229;BME280;4155;50.118;8.714;2022-07-05T04:58:33;100490.78;;;31.10;29.49
8229;BME280;4155;50.118;8.714;2022-07-05T05:01:01;100500.72;;;30.63;29.74
8229;BME280;4155;50.118;8.714;2022-07-05T05:03:28;100497.81;;;29.70;30.93
8229;BME280;4155;50.118;8.714;2022-07-05T05:05:58;100491.72;;;29.59;31.45
8229;BME280;4155;50.118;8.714;2022-07-05T05:08:26;100484.69;;;29.25;31.79
8229;BME280;4155;50.118;8.714;2022-07-05T05:10:54;100494.91;;;30.11;31.51
8229;BME280;4155;50.118;8.714;2022-07-05T05:13:21;100490.31;;;29.20;32.55
8229;BME280;4155;50.118;8.714;2022-07-05T05:15:49;100489.25;;;29.57;32.54
8229;BME280;4155;50.118;8.714;2022-07-05T05:18:16;100497.06;;;30.76;30.94
8229;BME280;4155;50.118;8.714;2022-07-05T05:20:47;100497.00;;;30.36;31.68
8229;BME280;4155;50.118;8.714;2022-07-05T05:23:16;100503.31;;;31.90;29.07
8229;BME280;4155;50.118;8.714;2022-07-05T05:25:44;100493.84;;;30.91;30.77
8229;BME280;4155;50.118;8.714;2022-07-05T05:28:12;100494.72;;;29.71;32.31
8229;BME280;4155;50.118;8.714;2022-07-05T05:30:39;100500.13;;;30.43;30.83
8229;BME280;4155;50.118;8.714;2022-07-05T05:33:07;100507.47;;;30.48;31.13
8229;BME280;4155;50.118;8.714;2022-07-05T05:35:34;100499.34;;;29.12;32.71
8229;BME280;4155;50.118;8.714;2022-07-05T05:38:02;100503.66;;;30.35;31.49
8229;BME280;4155;50.118;8.714;2022-07-05T05:40:31;100503.34;;;29.70;31.91
8229;BME280;4155;50.118;8.714;2022-07-05T05:43:00;100505.16;;;29.74;31.94
8229;BME280;4155;50.118;8.714;2022-07-05T05:45:28;100504.72;;;29.58;32.80
8229;BME280;4155;50.118;8.714;2022-07-05T05:47:57;100505.06;;;28.74;33.52
8229;BME280;4155;50.118;8.714;2022-07-05T05:50:26;100520.97;;;30.18;31.89
8229;BME280;4155;50.118;8.714;2022-07-05T05:52:54;100511.47;;;30.95;31.57
8229;BME280;4155;50.118;8.714;2022-07-05T05:55:24;100519.00;;;30.41;31.88
8229;BME280;4155;50.118;8.714;2022-07-05T05:57:53;100516.88;;;28.47;33.82
8229;BME280;4155;50.118;8.714;2022-07-05T06:00:22;100510.03;;;28.26;35.11
8229;BME280;4155;50.118;8.714;2022-07-05T06:02:50;100514.09;;;29.71;33.07
8229;BME280;4155;50.118;8.714;2022-07-05T06:05:18;100518.50;;;30.39;32.18
8229;BME280;4155;50.118;8.714;2022-07-05T06:07:48;100517.81;;;30.34;32.15
8229;BME280;4155;50.118;8.714;2022-07-05T06:10:17;100531.13;;;31.33;31.39
8229;BME280;4155;50.118;8.714;2022-07-05T06:12:46;100534.66;;;31.91;30.73
8229;BME280;4155;50.118;8.714;2022-07-05T06:15:15;100532.19;;;32.79;29.00
8229;BME280;4155;50.118;8.714;2022-07-05T06:17:43;100537.72;;;31.98;29.70
8229;BME280;4155;50.118;8.714;2022-07-05T06:20:14;100521.22;;;32.45;29.20
8229;BME280;4155;50.118;8.714;2022-07-05T06:22:42;100529.88;;;33.49;28.41
8229;BME280;4155;50.118;8.714;2022-07-05T06:25:10;100531.13;;;33.40;28.00
8229;BME280;4155;50.118;8.714;2022-07-05T06:27:50;100529.78;;;32.69;28.41
8229;BME280;4155;50.118;8.714;2022-07-05T06:30:21;100533.47;;;31.66;30.07
8229;BME280;4155;50.118;8.714;2022-07-05T06:32:49;100538.34;;;32.21;29.56
8229;BME280;4155;50.118;8.714;2022-07-05T06:35:18;100539.47;;;30.85;30.58
8229;BME280;4155;50.118;8.714;2022-07-05T06:37:48;100541.75;;;31.31;29.51
8229;BME280;4155;50.118;8.714;2022-07-05T06:40:22;100533.66;;;31.13;31.02
8229;BME280;4155;50.118;8.714;2022-07-05T06:42:50;100543.13;;;31.94;29.44
8229;BME280;4155;50.118;8.714;2022-07-05T06:45:19;100545.72;;;32.17;29.60
8229;BME280;4155;50.118;8.714;2022-07-05T06:47:54;100535.63;;;31.78;29.15
8229;BME280;4155;50.118;8.714;2022-07-05T06:50:22;100538.81;;;31.28;30.75
8229;BME280;4155;50.118;8.714;2022-07-05T06:52:49;100540.91;;;32.61;29.01
8229;BME280;4155;50.118;8.714;2022-07-05T06:55:17;100540.19;;;32.81;28.48
8229;BME280;4155;50.118;8.714;2022-07-05T06:57:45;100540.72;;;30.26;32.21
8229;BME280;4155;50.118;8.714;2022-07-05T07:00:34;100538.53;;;29.28;33.64
8229;BME280;4155;50.118;8.714;2022-07-05T07:03:22;100543.53;;;29.26;33.57
8229;BME280;4155;50.118;8.714;2022-07-05T07:06:09;100532.78;;;29.52;33.74
8229;BME280;4155;50.118;8.714;2022-07-05T07:08:37;100548.06;;;30.84;31.83
8229;BME280;4155;50.118;8.714;2022-07-05T07:11:23;100548.34;;;32.13;29.82
8229;BME280;4155;50.118;8.714;2022-07-05T07:13:50;100554.81;;;31.00;31.24
8229;BME280;4155;50.118;8.714;2022-07-05T07:16:19;100549.59;;;32.50;29.92
8229;BME280;4155;50.118;8.714;2022-07-05T07:18:47;100548.84;;;33.18;28.58
8229;BME280;4155;50.118;8.714;2022-07-05T07:21:35;100554.19;;;32.55;29.40
8229;BME280;4155;50.118;8.714;2022-07-05T07:24:02;100549.00;;;32.92;28.30
8229;BME280;4155;50.118;8.714;2022-07-05T07:26:30;100557.63;;;33.58;28.36
8229;BME280;4155;50.118;8.714;2022-07-05T07:29:18;100568.44;;;34.22;27.87
8229;BME280;4155;50.118;8.714;2022-07-05T07:31:47;100561.94;;;33.17;29.05
8229;BME280;4155;50.118;8.714;2022-07-05T07:34:15;100554.41;;;31.81;31.12
8229;BME280;4155;50.118;8.714;2022-07-05T07:36:42;100557.09;;;33.44;28.96
8229;BME280;4155;50.118;8.714;2022-07-05T07:39:10;100561.41;;;32.94;29.64
8229;BME280;4155;50.118;8.714;2022-07-05T07:41:38;100561.72;;;30.27;33.45
8229;BME280;4155;50.118;8.714;2022-07-05T07:44:06;100570.84;;;32.20;31.16
8229;BME280;4155;50.118;8.714;2022-07-05T07:46:34;100568.19;;;32.67;29.79
8229;BME280;4155;50.118;8.714;2022-07-05T07:49:03;100572.16;;;32.49;30.29
8229;BME280;4155;50.118;8.714;2022-07-05T07:51:31;100573.22;;;32.74;29.25
8229;BME280;4155;50.118;8.714;2022-07-05T07:53:59;100561.06;;;32.96;29.37
8229;BME280;4155;50.118;8.714;2022-07-05T07:56:27;100570.56;;;34.04;28.65
8229;BME280;4155;50.118;8.714;2022-07-05T07:58:56;100560.28;;;33.25;28.49
8229;BME280;4155;50.118;8.714;2022-07-05T08:01:25;100557.28;;;33.59;28.38
8229;BME280;4155;50.118;8.714;2022-07-05T08:03:52;100561.13;;;32.87;30.20
8229;BME280;4155;50.118;8.714;2022-07-05T08:06:21;100558.41;;;33.08;27.99
8229;BME280;4155;50.118;8.714;2022-07-05T08:08:49;100561.00;;;34.14;27.50
8229;BME280;4155;50.118;8.714;2022-07-05T08:11:18;100546.31;;;33.04;28.13
8229;BME280;4155;50.118;8.714;2022-07-05T08:13:46;100551.91;;;32.40;29.91
8229;BME280;4155;50.118;8.714;2022-07-05T08:16:14;100560.00;;;33.47;28.31
8229;BME280;4155;50.118;8.714;2022-07-05T08:18:42;100560.06;;;32.28;30.42
8229;BME280;4155;50.118;8.714;2022-07-05T08:21:30;100554.66;;;30.96;31.51
8229;BME280;4155;50.118;8.714;2022-07-05T08:24:05;100551.69;;;32.53;29.73
8229;BME280;4155;50.118;8.714;2022-07-05T08:26:34;100548.41;;;33.07;28.75
8229;BME280;4155;50.118;8.714;2022-07-05T08:29:07;100544.38;;;32.96;28.79
8229;BME280;4155;50.118;8.714;2022-07-05T08:31:37;100538.59;;;32.71;29.18
8229;BME280;4155;50.118;8.714;2022-07-05T08:34:06;100538.44;;;33.06;28.67
8229;BME280;4155;50.118;8.714;2022-07-05T08:36:35;100543.88;;;33.61;27.03
8229;BME280;4155;50.118;8.714;2022-07-05T08:39:04;100544.44;;;33.97;26.97
8229;BME280;4155;50.118;8.714;2022-07-05T08:41:34;100532.66;;;33.70;26.05
8229;BME280;4155;50.118;8.714;2022-07-05T08:44:03;100531.72;;;32.77;26.72
8229;BME280;4155;50.118;8.714;2022-07-05T08:46:32;100531.50;;;32.91;27.45
8229;BME280;4155;50.118;8.714;2022-07-05T08:49:02;100523.78;;;33.26;26.87
8229;BME280;4155;50.118;8.714;2022-07-05T08:51:40;100529.88;;;32.90;28.43
8229;BME280;4155;50.118;8.714;2022-07-05T08:54:10;100529.22;;;32.29;29.33
8229;BME280;4155;50.118;8.714;2022-07-05T08:56:41;100537.66;;;31.29;30.37
8229;BME280;4155;50.118;8.714;2022-07-05T08:59:29;100531.88;;;31.08;30.63
8229;BME280;4155;50.118;8.714;2022-07-05T09:01:57;100542.59;;;31.66;29.91
8229;BME280;4155;50.118;8.714;2022-07-05T09:04:29;100535.09;;;32.10;29.05
8229;BME280;4155;50.118;8.714;2022-07-05T09:07:03;100529.63;;;30.79;30.38
8229;BME280;4155;50.118;8.714;2022-07-05T09:09:37;100539.78;;;31.32;29.81
8229;BME280;4155;50.118;8.714;2022-07-05T09:12:11;100529.97;;;30.77;30.74
8229;BME280;4155;50.118;8.714;2022-07-05T09:14:51;100526.16;;;30.65;30.60
8229;BME280;4155;50.118;8.714;2022-07-05T09:17:20;100530.34;;;30.62;30.52
8229;BME280;4155;50.118;8.714;2022-07-05T09:20:04;100527.53;;;29.86;30.42
8229;BME280;4155;50.118;8.714;2022-07-05T09:22:56;100526.28;;;28.93;32.23
8229;BME280;4155;50.118;8.714;2022-07-05T09:25:25;100526.94;;;29.39;31.83
8229;BME280;4155;50.118;8.714;2022-07-05T09:27:55;100524.91;;;29.31;31.66
8229;BME280;4155;50.118;8.714;2022-07-05T09:30:29;100514.97;;;28.62;31.55
8229;BME280;4155;50.118;8.714;2022-07-05T09:33:04;100523.25;;;28.75;31.84
8229;BME280;4155;50.118;8.714;2022-07-05T09:35:34;100519.31;;;28.95;33.17
8229;BME280;4155;50.118;8.714;2022-07-05T09:38:03;100526.53;;;28.77;32.64
8229;BME280;4155;50.118;8.714;2022-07-05T09:40:31;100515.47;;;28.50;33.58
8229;BME280;4155;50.118;8.714;2022-07-05T09:43:13;100514.03;;;28.52;32.75
8229;BME280;4155;50.118;8.714;2022-07-05T09:45:50;100511.59;;;28.65;32.45
8229;BME280;4155;50.118;8.714;2022-07-05T09:48:17;100520.81;;;28.88;32.78
8229;BME280;4155;50.118;8.714;2022-07-05T09:51:06;100520.34;;;29.63;32.49
8229;BME280;4155;50.118;8.714;2022-07-05T09:53:56;100514.63;;;29.59;31.04
8229;BME280;4155;50.118;8.714;2022-07-05T09:56:28;100521.00;;;29.32;32.01
8229;BME280;4155;50.118;8.714;2022-07-05T09:59:12;100517.84;;;28.84;31.60
8229;BME280;4155;50.118;8.714;2022-07-05T10:01:40;100514.69;;;28.91;31.46
8229;BME280;4155;50.118;8.714;2022-07-05T10:04:09;100518.94;;;28.56;32.56
8229;BME280;4155;50.118;8.714;2022-07-05T10:06:36;100512.88;;;28.40;31.90
8229;BME280;4155;50.118;8.714;2022-07-05T10:09:06;100516.09;;;28.28;31.22
8229;BME280;4155;50.118;8.714;2022-07-05T10:11:38;100525.16;;;27.58;33.57
8229;BME280;4155;50.118;8.714;2022-07-05T10:14:11;100521.66;;;27.34;33.43
8229;BME280;4155;50.118;8.714;2022-07-05T10:16:39;100515.59;;;27.32;32.63
8229;BME280;4155;50.118;8.714;2022-07-05T10:19:14;100519.56;;;27.63;33.28
8229;BME280;4155;50.118;8.714;2022-07-05T10:21:43;100525.91;;;28.02;32.91
8229;BME280;4155;50.118;8.714;2022-07-05T10:24:35;100517.59;;;27.88;31.92
8229;BME280;4155;50.118;8.714;2022-07-05T10:27:06;100519.13;;;28.27;31.66
8229;BME280;4155;50.118;8.714;2022-07-05T10:29:35;100522.19;;;28.44;32.45
8229;BME280;4155;50.118;8.714;2022-07-05T10:32:06;100517.97;;;28.14;32.15
8229;BME280;4155;50.118;8.714;2022-07-05T10:34:35;100517.44;;;27.98;30.94
8229;BME280;4155;50.118;8.714;2022-07-05T10:37:25;100515.44;;;28.17;30.95
8229;BME280;4155;50.118;8.714;2022-07-05T10:39:57;100514.22;;;28.56;30.40
8229;BME280;4155;50.118;8.714;2022-07-05T10:42:29;100515.88;;;28.71;30.81
8229;BME280;4155;50.118;8.714;2022-07-05T10:44:58;100524.41;;;28.88;31.71
8229;BME280;4155;50.118;8.714;2022-07-05T10:47:26;100514.69;;;28.91;31.41
8229;BME280;4155;50.118;8.714;2022-07-05T10:50:00;100509.47;;;29.17;30.54
8229;BME280;4155;50.118;8.714;2022-07-05T10:52:28;100513.22;;;28.79;30.84
8229;BME280;4155;50.118;8.714;2022-07-05T10:55:21;100508.09;;;28.59;29.44
8229;BME280;4155;50.118;8.714;2022-07-05T10:58:18;100511.34;;;28.94;28.88
8229;BME280;4155;50.118;8.714;2022-07-05T11:00:46;100502.91;;;28.85;30.18
8229;BME280;4155;50.118;8.714;2022-07-05T11:03:32;100501.88;;;28.67;29.67
8229;BME280;4155;50.118;8.714;2022-07-05T11:06:01;100497.66;;;28.70;30.40
8229;BME280;4155;50.118;8.714;2022-07-05T11:08:29;100485.41;;;28.62;31.08
8229;BME280;4155;50.118;8.714;2022-07-05T11:11:11;100499.22;;;28.76;31.06
8229;BME280;4155;50.118;8.714;2022-07-05T11:13:40;100497.53;;;28.34;31.69
8229;BME280;4155;50.118;8.714;2022-07-05T11:16:25;100492.13;;;28.29;33.25
8229;BME280;4155;50.118;8.714;2022-07-05T11:19:04;100490.94;;;28.76;31.08
8229;BME280;4155;50.118;8.714;2022-07-05T11:21:33;100490.13;;;29.17;31.15
8229;BME280;4155;50.118;8.714;2022-07-05T11:24:17;100488.28;;;28.85;31.40
8229;BME280;4155;50.118;8.714;2022-07-05T11:26:48;100489.09;;;28.85;31.10
8229;BME280;4155;50.118;8.714;2022-07-05T11:29:40;100489.09;;;29.26;30.52
8229;BME280;4155;50.118;8.714;2022-07-05T11:32:09;100485.97;;;29.42;30.76
8229;BME280;4155;50.118;8.714;2022-07-05T11:34:37;100481.47;;;29.82;29.23
8229;BME280;4155;50.118;8.714;2022-07-05T11:37:18;100480.59;;;29.73;29.74
8229;BME280;4155;50.118;8.714;2022-07-05T11:40:28;100487.06;;;29.68;30.83
8229;BME280;4155;50.118;8.714;2022-07-05T11:42:58;100466.38;;;29.29;30.56
8229;BME280;4155;50.118;8.714;2022-07-05T11:45:26;100477.16;;;29.53;30.20
8229;BME280;4155;50.118;8.714;2022-07-05T11:47:54;100479.84;;;30.03;30.76
8229;BME280;4155;50.118;8.714;2022-07-05T11:50:28;100480.88;;;30.38;29.39
8229;BME280;4155;50.118;8.714;2022-07-05T11:52:58;100470.41;;;30.27;30.31
8229;BME280;4155;50.118;8.714;2022-07-05T11:55:30;100472.78;;;30.19;29.66
8229;BME280;4155;50.118;8.714;2022-07-05T11:57:59;100478.06;;;30.30;28.75
8229;BME280;4155;50.118;8.714;2022-07-05T12:00:29;100466.38;;;29.88;29.77
8229;BME280;4155;50.118;8.714;2022-07-05T12:02:57;100461.91;;;29.56;30.23
8229;BME280;4155;50.118;8.714;2022-07-05T12:05:30;100457.09;;;29.84;28.12
8229;BME280;4155;50.118;8.714;2022-07-05T12:07:58;100453.56;;;29.70;29.07
8229;BME280;4155;50.118;8.714;2022-07-05T12:10:26;100459.13;;;29.56;29.64
8229;BME280;4155;50.118;8.714;2022-07-05T12:13:43;100456.25;;;29.11;30.41
8229;BME280;4155;50.118;8.714;2022-07-05T12:16:11;100450.66;;;28.61;30.91
8229;BME280;4155;50.118;8.714;2022-07-05T12:18:53;100445.50;;;27.94;31.67
8229;BME280;4155;50.118;8.714;2022-07-05T12:21:22;100450.63;;;28.01;30.95
8229;BME280;4155;50.118;8.714;2022-07-05T12:23:51;100448.81;;;27.59;30.92
8229;BME280;4155;50.118;8.714;2022-07-05T12:26:22;100455.06;;;28.16;31.21
8229;BME280;4155;50.118;8.714;2022-07-05T12:28:51;100447.28;;;28.64;31.01
8229;BME280;4155;50.118;8.714;2022-07-05T12:31:20;100456.69;;;28.91;30.38
8229;BME280;4155;50.118;8.714;2022-07-05T12:33:50;100446.56;;;28.59;30.66
8229;BME280;4155;50.118;8.714;2022-07-05T12:36:20;100445.66;;;28.63;30.40
8229;BME280;4155;50.118;8.714;2022-07-05T12:38:50;100438.59;;;28.85;30.90
8229;BME280;4155;50.118;8.714;2022-07-05T12:41:21;100449.63;;;28.85;30.69
8229;BME280;4155;50.118;8.714;2022-07-05T12:43:54;100441.66;;;28.83;29.87
8229;BME280;4155;50.118;8.714;2022-07-05T12:46:34;100445.22;;;29.11;28.77
8229;BME280;4155;50.118;8.714;2022-07-05T12:49:09;100445.13;;;29.52;30.25
8229;BME280;4155;50.118;8.714;2022-07-05T12:51:39;100443.75;;;29.63;29.48
8229;BME280;4155;50.118;8.714;2022-07-05T12:54:18;100444.31;;;29.74;28.99
8229;BME280;4155;50.118;8.714;2022-07-05T12:57:05;100441.13;;;29.45;28.76
8229;BME280;4155;50.118;8.714;2022-07-05T12:59:59;100428.81;;;29.28;28.94
8229;BME280;4155;50.118;8.714;2022-07-05T13:02:38;100430.44;;;28.93;29.08
8229;BME280;4155;50.118;8.714;2022-07-05T13:05:09;100435.09;;;29.06;28.54
8229;BME280;4155;50.118;8.714;2022-07-05T13:07:43;100428.25;;;29.04;28.57
8229;BME280;4155;50.118;8.714;2022-07-05T13:10:20;100435.09;;;29.43;29.02
8229;BME280;4155;50.118;8.714;2022-07-05T13:12:48;100425.47;;;29.54;27.50
8229;BME280;4155;50.118;8.714;2022-07-05T13:15:19;100421.66;;;29.63;28.32
8229;BME280;4155;50.118;8.714;2022-07-05T13:17:46;100432.19;;;30.06;27.94
8229;BME280;4155;50.118;8.714;2022-07-05T13:20:16;100422.19;;;29.96;28.20
8229;BME280;4155;50.118;8.714;2022-07-05T13:22:46;100427.41;;;29.98;28.98
8229;BME280;4155;50.118;8.714;2022-07-05T13:25:15;100430.53;;;30.05;28.64
8229;BME280;4155;50.118;8.714;2022-07-05T13:27:42;100427.84;;;30.14;28.10
8229;BME280;4155;50.118;8.714;2022-07-05T13:30:11;100428.66;;;29.47;28.60